Time;durP1;ratioP1;P1;durP2;ratioP2;P2;SDS_P1;SDS_P2;PMS_P1;PMS_P2;Temp;Humidity;BMP_temperature;BMP_pressure;BME280_temperature;BME280_humidity;BME280_pressure;Samples;Min_cycle;Max_cycle;Signal;HPM_P1;HPM_P2
2023/01/13 00:02:15;;;;;;;36.13;16.38;;;;;;;5.58;100.00;100900.66;4977993;28;20031;-86
2023/01/13 00:04:41;;;;;;;34.35;16.15;;;;;;;5.77;100.00;100894.78;4976646;28;20078;-88
2023/01/13 00:07:07;;;;;;;35.00;16.55;;;;;;;6.02;100.00;100891.88;4976748;28;20042;-86
2023/01/13 00:09:32;;;;;;;31.60;15.50;;;;;;;6.06;100.00;100893.31;4979178;28;20110;-92
2023/01/13 00:11:58;;;;;;;27.17;15.02;;;;;;;6.11;100.00;100901.66;4978278;28;20478;-86
2023/01/13 00:14:25;;;;;;;25.73;14.27;;;;;;;6.30;100.00;100907.09;4979041;28;20031;-90
2023/01/13 00:16:50;;;;;;;28.77;14.13;;;;;;;6.36;100.00;100911.03;4993371;28;20127;-89
2023/01/13 00:19:16;;;;;;;30.80;15.65;;;;;;;6.25;100.00;100909.28;4977799;28;20466;-88
2023/01/13 00:21:42;;;;;;;30.58;15.60;;;;;;;6.10;100.00;100905.25;4978377;28;20035;-91
2023/01/13 00:24:09;;;;;;;30.08;15.35;;;;;;;6.27;100.00;100896.81;4960044;28;20041;-91
2023/01/13 00:26:35;;;;;;;30.92;15.32;;;;;;;6.26;100.00;100899.59;4978648;28;20110;-89
2023/01/13 00:29:01;;;;;;;27.27;15.38;;;;;;;6.25;100.00;100882.97;4979107;28;20115;-90
2023/01/13 00:31:28;;;;;;;25.27;14.18;;;;;;;6.40;100.00;100886.94;4960533;28;20141;-88
2023/01/13 00:34:01;;;;;;;28.10;15.18;;;;;;;6.21;100.00;100889.44;4975861;28;20113;-89
2023/01/13 00:36:30;;;;;;;;;;;;;;;6.13;100.00;100886.59;4980543;28;20039;-85
2023/01/13 00:38:56;;;;;;;27.25;14.25;;;;;;;6.25;100.00;100885.59;4983524;28;19918;-90
2023/01/13 00:41:26;;;;;;;30.80;14.70;;;;;;;6.43;100.00;100885.88;4980403;28;20045;-88
2023/01/13 00:43:52;;;;;;;25.40;14.05;;;;;;;6.41;100.00;100880.72;4960872;28;20043;-89
2023/01/13 00:46:21;;;;;;;26.88;13.48;;;;;;;6.24;100.00;100881.28;4978294;28;20039;-90
2023/01/13 00:48:47;;;;;;;20.92;11.00;;;;;;;6.12;100.00;100883.13;4978456;28;20046;-83
2023/01/13 00:51:16;;;;;;;19.92;10.02;;;;;;;5.97;100.00;100878.25;4993147;28;20045;-91
2023/01/13 00:53:44;;;;;;;20.80;10.20;;;;;;;6.08;100.00;100873.81;4982302;28;20434;-89
2023/01/13 00:56:16;;;;;;;19.23;9.45;;;;;;;6.16;100.00;100873.19;4979618;28;20042;-86
2023/01/13 00:58:43;;;;;;;;;;;;;;;5.99;100.00;100876.34;4981061;28;20045;-86
2023/01/13 01:01:11;;;;;;;27.10;12.00;;;;;;;5.91;100.00;100868.22;4981002;28;19940;-89
2023/01/13 01:03:37;;;;;;;25.73;12.18;;;;;;;6.07;100.00;100874.75;4980448;28;20491;-89
2023/01/13 01:06:11;;;;;;;22.45;11.32;;;;;;;6.11;100.00;100867.44;4980168;28;20035;-87
2023/01/13 01:08:36;;;;;;;22.30;11.35;;;;;;;5.82;100.00;100858.44;4994806;28;20046;-86
2023/01/13 01:11:14;;;;;;;24.67;12.30;;;;;;;5.49;100.00;100862.78;4979979;28;20047;-85
2023/01/13 01:13:40;;;;;;;24.35;12.77;;;;;;;5.53;100.00;100851.09;4995239;28;20121;-88
2023/01/13 01:16:08;;;;;;;26.73;12.25;;;;;;;5.54;100.00;100855.38;4980700;28;20427;-88
2023/01/13 01:18:35;;;;;;;31.15;12.25;;;;;;;5.81;100.00;100851.47;4980724;28;20080;-88
2023/01/13 01:21:02;;;;;;;24.73;11.50;;;;;;;5.70;100.00;100849.75;4980204;28;20043;-90
2023/01/13 01:23:29;;;;;;;22.77;10.70;;;;;;;5.78;100.00;100849.94;4980193;28;20031;-88
2023/01/13 01:26:02;;;;;;;21.50;11.55;;;;;;;5.95;100.00;100852.09;4980132;28;20039;-91
2023/01/13 01:28:28;;;;;;;25.98;12.45;;;;;;;5.85;100.00;100852.91;4979639;28;20129;-89
2023/01/13 01:30:54;;;;;;;22.48;11.98;;;;;;;5.92;100.00;100839.19;4962863;28;20105;-86
2023/01/13 01:33:21;;;;;;;20.42;11.82;;;;;;;5.94;100.00;100844.31;4980101;28;20035;-88
2023/01/13 01:35:46;;;;;;;22.52;11.52;;;;;;;5.94;100.00;100839.03;4980009;28;20031;-86
2023/01/13 01:38:12;;;;;;;24.05;12.20;;;;;;;6.17;100.00;100848.53;4980506;28;20545;-86
2023/01/13 01:40:37;;;;;;;25.83;13.27;;;;;;;6.04;100.00;100853.97;4979867;28;20042;-88
2023/01/13 01:46:00;;;;;;;20.55;11.48;;;;;;;6.21;100.00;100834.16;4980188;28;20057;-86
2023/01/13 01:48:28;;;;;;;19.35;11.65;;;;;;;6.26;100.00;100826.75;4979694;28;20062;-87
2023/01/13 01:50:54;;;;;;;19.40;11.90;;;;;;;6.19;100.00;100821.16;4981906;28;20038;-89
2023/01/13 01:53:23;;;;;;;26.92;12.45;;;;;;;6.21;100.00;100819.22;4987115;28;20082;-84
2023/01/13 01:55:49;;;;;;;21.27;11.60;;;;;;;6.13;100.00;100820.81;4971362;28;20046;-86
2023/01/13 01:58:22;;;;;;;21.95;11.93;;;;;;;6.12;100.00;100811.25;4984694;28;20039;-89
2023/01/13 02:00:47;;;;;;;26.35;12.90;;;;;;;6.18;100.00;100802.84;4983230;28;20056;-86
2023/01/13 02:03:15;;;;;;;21.77;11.95;;;;;;;6.08;100.00;100799.28;4988715;28;20078;-87
2023/01/13 02:05:41;;;;;;;21.42;11.73;;;;;;;6.06;100.00;100798.59;4989631;28;20059;-86
2023/01/13 02:08:08;;;;;;;23.20;11.25;;;;;;;6.18;100.00;100798.41;4990521;28;20035;-86
2023/01/13 02:10:35;;;;;;;21.42;11.65;;;;;;;6.25;100.00;100793.47;4989206;28;20039;-86
2023/01/13 02:13:05;;;;;;;20.00;10.55;;;;;;;6.34;100.00;100799.75;4992390;28;20019;-86
2023/01/13 02:15:58;;;;;;;18.08;10.77;;;;;;;6.41;100.00;100796.50;4999731;28;20106;-83
2023/01/13 02:19:00;;;;;;;25.50;12.18;;;;;;;6.26;100.00;100776.72;4996428;28;20026;-84
2023/01/13 02:21:47;;;;;;;28.60;15.52;;;;;;;6.37;100.00;100763.47;4997643;28;20031;-84
2023/01/13 02:25:06;;;;;;;38.45;18.42;;;;;;;6.36;100.00;100772.38;4998071;28;20026;-86
2023/01/13 02:27:36;;;;;;;39.92;19.38;;;;;;;6.21;100.00;100771.00;4992532;28;20161;-86
2023/01/13 02:33:29;;;;;;;41.60;19.70;;;;;;;6.12;100.00;100756.00;4998314;28;20035;-87
2023/01/13 02:36:04;;;;;;;46.95;20.45;;;;;;;6.16;100.00;100746.88;4981422;28;20058;-85
2023/01/13 02:38:59;;;;;;;46.72;22.08;;;;;;;6.14;100.00;100751.41;4992786;28;20026;-88
2023/01/13 02:44:23;;;;;;;38.00;18.30;;;;;;;6.20;100.00;100743.00;4976083;28;20042;-87
2023/01/13 02:46:58;;;;;;;34.97;16.90;;;;;;;6.29;100.00;100742.25;4991598;28;20038;-86
2023/01/13 02:49:38;;;;;;;36.58;18.23;;;;;;;6.38;100.00;100736.22;4976495;28;20069;-89
2023/01/13 02:52:35;;;;;;;42.78;19.35;;;;;;;6.31;100.00;100745.59;4975997;28;20038;-88
2023/01/13 02:55:05;;;;;;;41.13;18.88;;;;;;;6.21;100.00;100750.78;4970416;28;20094;-89
2023/01/13 02:57:32;;;;;;;44.08;18.45;;;;;;;6.08;100.00;100750.16;4975796;28;20043;-89
2023/01/13 02:59:59;;;;;;;39.20;17.02;;;;;;;6.16;100.00;100752.16;4975786;28;20109;-85
2023/01/13 03:02:25;;;;;;;34.83;16.40;;;;;;;6.09;100.00;100746.56;4975946;28;20041;-89
2023/01/13 03:04:54;;;;;;;32.00;15.60;;;;;;;6.12;100.00;100745.47;4975566;28;20035;-89
2023/01/13 03:07:58;;;;;;;29.15;14.20;;;;;;;6.29;100.00;100747.53;4975727;28;20085;-88
2023/01/13 03:10:26;;;;;;;31.40;15.10;;;;;;;6.08;100.00;100751.94;4975743;28;20066;-88
2023/01/13 03:13:16;;;;;;;26.95;13.48;;;;;;;6.00;100.00;100747.31;4975564;28;20355;-90
2023/01/13 03:15:57;;;;;;;26.83;14.80;;;;;;;5.98;100.00;100748.41;4975426;28;20042;-89
2023/01/13 03:18:35;;;;;;;26.95;14.18;;;;;;;5.90;100.00;100746.41;4974702;28;20394;-88
2023/01/13 03:21:18;;;;;;;33.67;13.20;;;;;;;6.09;100.00;100728.16;4974035;28;20049;-89
2023/01/13 03:23:53;;;;;;;27.80;14.10;;;;;;;6.17;100.00;100738.00;4974353;28;20038;-89
2023/01/13 03:26:54;;;;;;;32.35;13.77;;;;;;;6.17;100.00;100730.13;4975168;28;20061;-86
2023/01/13 03:29:36;;;;;;;24.85;12.93;;;;;;;6.06;100.00;100736.28;4986064;28;20043;-89
2023/01/13 03:32:13;;;;;;;26.25;11.55;;;;;;;6.04;100.00;100740.00;4992729;28;20050;-87
2023/01/13 03:34:46;;;;;;;24.77;11.68;;;;;;;6.03;100.00;100733.91;4993471;28;20065;-88
2023/01/13 03:37:14;;;;;;;24.00;12.23;;;;;;;5.85;100.00;100729.31;4993617;28;20043;-88
2023/01/13 03:39:46;;;;;;;22.92;11.98;;;;;;;5.87;100.00;100725.59;4981839;28;20022;-90
2023/01/13 03:42:19;;;;;;;21.65;10.93;;;;;;;6.12;100.00;100730.50;4989693;28;20039;-88
2023/01/13 03:44:51;;;;;;;18.42;9.35;;;;;;;6.21;100.00;100735.00;4986145;28;20124;-86
2023/01/13 03:47:17;;;;;;;10.50;6.50;;;;;;;6.13;100.00;100741.88;4968680;28;20045;-89
2023/01/13 03:49:52;;;;;;;19.75;9.15;;;;;;;6.07;100.00;100734.47;4966282;28;20046;-89
2023/01/13 03:52:32;;;;;;;16.63;8.90;;;;;;;5.92;100.00;100733.13;4976034;28;20438;-90
2023/01/13 03:55:21;;;;;;;18.80;9.05;;;;;;;5.90;100.00;100735.06;4975275;28;20413;-89
2023/01/13 03:57:58;;;;;;;16.85;8.18;;;;;;;5.84;100.00;100736.34;4978044;28;20058;-89
2023/01/13 04:00:49;;;;;;;17.75;8.65;;;;;;;5.77;100.00;100739.63;4960095;28;20039;-90
2023/01/13 04:03:57;;;;;;;18.17;8.25;;;;;;;5.95;100.00;100736.34;4984918;28;20065;-91
2023/01/13 04:06:33;;;;;;;18.00;7.85;;;;;;;5.88;100.00;100732.53;4934704;29;20077;-90
2023/01/13 04:09:31;;;;;;;17.80;7.95;;;;;;;5.73;100.00;100739.84;4937105;29;20040;-88
2023/01/13 04:12:10;;;;;;;14.05;8.40;;;;;;;5.71;100.00;100741.78;4911991;29;20054;-88
2023/01/13 04:14:37;;;;;;;22.17;7.93;;;;;;;5.84;100.00;100730.25;4949927;29;20047;-87
2023/01/13 04:17:02;;;;;;;17.77;7.45;;;;;;;5.83;100.00;100733.88;4961701;28;20050;-87
2023/01/13 04:19:28;;;;;;;14.80;8.02;;;;;;;5.99;100.00;100744.81;4975227;28;20402;-86
2023/01/13 04:21:53;;;;;;;14.98;7.50;;;;;;;6.01;100.00;100753.41;4974882;28;20120;-92
2023/01/13 04:24:19;;;;;;;16.33;7.70;;;;;;;5.90;100.00;100740.31;4974912;28;20035;-90
2023/01/13 04:26:44;;;;;;;15.57;7.65;;;;;;;5.86;100.00;100729.22;4977142;28;20030;-90
2023/01/13 04:29:10;;;;;;;16.30;7.32;;;;;;;5.82;100.00;100753.22;4981383;28;20047;-89
2023/01/13 04:31:38;;;;;;;20.05;7.53;;;;;;;5.77;100.00;100743.06;4981226;28;20095;-86
2023/01/13 04:34:04;;;;;;;15.98;7.97;;;;;;;5.91;100.00;100757.75;4963511;28;20426;-86
2023/01/13 04:36:29;;;;;;;14.23;7.88;;;;;;;5.80;100.00;100755.16;4963304;28;20045;-88
2023/01/13 04:38:55;;;;;;;13.95;7.72;;;;;;;5.63;100.00;100759.97;4981690;28;20536;-85
2023/01/13 04:41:20;;;;;;;14.30;7.63;;;;;;;5.71;100.00;100759.34;4981634;28;20512;-87
2023/01/13 04:43:46;;;;;;;14.18;7.30;;;;;;;5.87;100.00;100757.16;4963736;28;20038;-86
2023/01/13 04:46:11;;;;;;;15.13;7.50;;;;;;;5.96;100.00;100760.84;4980638;28;20085;-87
2023/01/13 04:48:37;;;;;;;19.90;8.40;;;;;;;5.69;100.00;100753.41;4981137;28;20038;-86
2023/01/13 04:51:03;;;;;;;18.85;8.45;;;;;;;5.67;100.00;100750.03;4963938;28;20395;-86
2023/01/13 04:53:28;;;;;;;24.33;8.70;;;;;;;5.46;100.00;100757.06;4981515;28;20132;-88
2023/01/13 04:55:54;;;;;;;12.60;8.00;;;;;;;5.48;100.00;100769.13;4972084;28;20086;-85
2023/01/13 04:58:20;;;;;;;16.08;8.20;;;;;;;5.65;100.00;100762.50;4992172;28;20478;-84
2023/01/13 05:00:46;;;;;;;16.20;8.02;;;;;;;5.74;100.00;100772.25;4992995;28;20081;-85
2023/01/13 05:03:11;;;;;;;17.38;8.57;;;;;;;5.61;100.00;100767.16;5000901;28;20134;-83
2023/01/13 05:05:37;;;;;;;16.40;8.18;;;;;;;5.40;100.00;100771.50;5014505;28;20089;-86
2023/01/13 05:08:05;;;;;;;15.68;8.50;;;;;;;5.44;100.00;100774.72;5010117;28;20042;-86
2023/01/13 05:10:30;;;;;;;16.20;8.40;;;;;;;5.40;100.00;100768.88;5002567;28;20192;-88
2023/01/13 05:18:28;;;;;;;14.73;7.90;;;;;;;5.61;100.00;100772.41;5000326;28;20034;-88
2023/01/13 05:20:53;;;;;;;17.85;8.48;;;;;;;5.57;100.00;100780.66;5001546;28;20038;-89
2023/01/13 05:26:06;;;;;;;17.77;8.27;;;;;;;5.71;100.00;100764.63;5000818;28;20476;-90
2023/01/13 05:28:33;;;;;;;16.63;7.95;;;;;;;5.78;100.00;100772.84;4982224;28;20133;-88
2023/01/13 05:30:59;;;;;;;16.25;8.07;;;;;;;5.94;100.00;100773.28;4983039;28;20038;-86
2023/01/13 05:33:25;;;;;;;17.73;7.80;;;;;;;6.08;100.00;100770.34;5002476;28;20168;-90
2023/01/13 05:35:51;;;;;;;22.65;8.70;;;;;;;6.10;100.00;100773.69;5000876;28;20061;-90
2023/01/13 05:38:17;;;;;;;20.58;9.13;;;;;;;5.79;100.00;100767.47;5004124;28;20457;-85
2023/01/13 05:43:29;;;;;;;22.80;9.18;;;;;;;5.48;100.00;100784.03;4992716;28;20046;-87
2023/01/13 05:45:58;;;;;;;17.17;9.43;;;;;;;5.22;100.00;100791.38;4997948;28;20022;-89
2023/01/13 05:48:50;;;;;;;21.52;8.95;;;;;;;5.09;100.00;100788.91;4997336;28;20038;-91
2023/01/13 05:51:21;;;;;;;17.88;9.27;;;;;;;5.10;100.00;100779.22;4999391;28;20030;-87
2023/01/13 05:53:46;;;;;;;20.27;9.38;;;;;;;5.16;100.00;100770.84;4996798;28;20039;-89
2023/01/13 05:56:12;;;;;;;22.67;11.25;;;;;;;5.03;100.00;100783.28;4996650;28;20154;-87
2023/01/13 05:58:38;;;;;;;20.23;11.23;;;;;;;5.04;100.00;100787.56;4996143;28;20026;-88
2023/01/13 06:01:07;;;;;;;24.35;9.95;;;;;;;5.18;100.00;100793.41;4996239;28;20065;-86
2023/01/13 06:03:33;;;;;;;23.73;11.55;;;;;;;5.28;100.00;100804.03;4981155;28;20520;-90
2023/01/13 06:06:12;;;;;;;26.70;11.40;;;;;;;5.38;100.00;100797.09;4999804;28;20038;-91
2023/01/13 06:08:38;;;;;;;24.35;11.23;;;;;;;5.41;100.00;100791.59;5007610;28;20482;-85
2023/01/13 06:11:03;;;;;;;20.83;11.20;;;;;;;5.56;100.00;100800.91;5008193;28;20038;-90
2023/01/13 06:13:29;;;;;;;18.75;9.15;;;;;;;5.49;100.00;100798.88;4993027;28;20045;-89
2023/01/13 06:15:59;;;;;;;21.90;10.25;;;;;;;5.66;100.00;100801.81;5005314;28;20090;-91
2023/01/13 06:18:25;;;;;;;23.40;9.63;;;;;;;5.32;100.00;100797.59;5000096;28;20050;-89
2023/01/13 06:20:51;;;;;;;21.02;9.73;;;;;;;5.32;100.00;100802.84;4999617;28;20027;-90
2023/01/13 06:23:17;;;;;;;17.65;9.60;;;;;;;5.47;100.00;100817.38;5000670;28;20038;-89
2023/01/13 06:25:52;;;;;;;34.80;13.88;;;;;;;5.42;100.00;100814.28;5001179;28;20057;-89
2023/01/13 06:28:17;;;;;;;34.28;16.20;;;;;;;5.46;100.00;100804.38;4998068;28;20046;-90
2023/01/13 06:30:48;;;;;;;35.90;14.90;;;;;;;5.39;100.00;100806.66;4996819;28;20417;-89
2023/01/13 06:33:22;;;;;;;32.97;15.30;;;;;;;5.50;100.00;100796.09;4981198;28;20039;-90
2023/01/13 06:35:58;;;;;;;29.67;15.57;;;;;;;5.32;100.00;100800.22;4944617;23;20107;-89
2023/01/13 06:38:27;;;;;;;32.15;14.95;;;;;;;5.23;100.00;100811.47;4925286;29;20040;-91
2023/01/13 06:40:53;;;;;;;26.67;15.30;;;;;;;5.28;100.00;100813.69;4909956;29;20047;-90
2023/01/13 06:43:25;;;;;;;31.27;15.27;;;;;;;5.34;100.00;100816.69;4926577;29;20056;-88
2023/01/13 06:45:52;;;;;;;33.55;16.27;;;;;;;5.59;100.00;100815.56;4932614;29;20127;-89
2023/01/13 06:48:22;;;;;;;36.95;15.45;;;;;;;5.30;100.00;100812.66;4925913;29;20518;-89
2023/01/13 06:50:47;;;;;;;33.00;15.65;;;;;;;5.58;100.00;100800.75;4908526;29;20047;-94
2023/01/13 06:53:13;;;;;;;30.27;14.68;;;;;;;5.72;100.00;100806.59;4923986;29;20103;-90
2023/01/13 06:55:38;;;;;;;38.45;16.98;;;;;;;5.81;100.00;100805.00;4923827;29;20071;-86
2023/01/13 06:58:04;;;;;;;46.50;20.75;;;;;;;5.70;100.00;100802.41;4925235;29;20040;-91
2023/01/13 07:00:31;;;;;;;39.78;20.33;;;;;;;5.81;100.00;100796.25;4922186;29;20036;-89
2023/01/13 07:03:14;;;;;;;45.67;18.65;;;;;;;5.63;100.00;100795.97;4921831;29;20044;-89
2023/01/13 07:05:42;;;;;;;32.08;16.35;;;;;;;5.36;100.00;100814.78;4923939;29;20044;-90
2023/01/13 07:08:10;;;;;;;43.92;17.02;;;;;;;5.40;100.00;100810.94;4926931;29;20028;-90
2023/01/13 07:10:36;;;;;;;43.28;17.50;;;;;;;5.47;100.00;100817.38;4925323;29;20114;-89
2023/01/13 07:15:58;;;;;;;57.35;24.40;;;;;;;5.41;100.00;100832.78;4932789;29;20043;-87
2023/01/13 07:48:05;;;;;;;53.57;20.73;;;;;;;4.93;100.00;100816.47;5463100;23;20075;-83
2023/01/13 07:50:31;;;;;;;49.70;19.60;;;;;;;4.82;100.00;100808.59;4957071;29;20291;-83
2023/01/13 07:52:57;;;;;;;44.25;19.95;;;;;;;4.75;100.00;100808.22;4947060;29;20047;-81
2023/01/13 07:55:23;;;;;;;61.65;23.80;;;;;;;4.85;100.00;100813.59;4940894;29;20093;-90
2023/01/13 07:57:48;;;;;;;70.70;24.02;;;;;;;4.97;100.00;100807.41;4946977;29;20028;-85
2023/01/13 08:00:15;;;;;;;83.38;27.20;;;;;;;4.87;100.00;100804.63;4960504;29;20019;-88
2023/01/13 08:02:41;;;;;;;99.65;28.67;;;;;;;4.90;100.00;100811.47;4958636;29;20075;-85
2023/01/13 08:05:08;;;;;;;94.43;27.52;;;;;;;4.80;100.00;100810.50;4943281;29;20028;-85
2023/01/13 08:07:34;;;;;;;109.25;26.67;;;;;;;4.81;100.00;100814.78;4958976;29;20023;-85
2023/01/13 08:10:00;;;;;;;94.57;26.27;;;;;;;4.79;100.00;100821.94;4958639;29;20566;-86
2023/01/13 08:15:11;;;;;;;68.35;25.27;;;;;;;4.87;100.00;100817.75;4953875;29;20140;-84
2023/01/13 08:17:37;;;;;;;72.30;25.05;;;;;;;4.91;100.00;100813.13;4954533;29;20032;-87
2023/01/13 08:20:03;;;;;;;57.97;23.60;;;;;;;4.94;100.00;100808.47;4956316;29;20032;-86
2023/01/13 08:22:31;;;;;;;69.25;24.90;;;;;;;5.15;100.00;100809.44;4936216;29;20039;-85
2023/01/13 08:25:00;;;;;;;51.65;22.52;;;;;;;5.19;100.00;100802.13;4935078;29;20047;-82
2023/01/13 08:27:25;;;;;;;78.22;38.45;;;;;;;5.09;100.00;100801.19;4937468;29;20099;-85
2023/01/13 08:29:51;;;;;;;56.58;23.73;;;;;;;5.11;100.00;100804.53;4919127;29;20052;-88
2023/01/13 08:32:18;;;;;;;54.83;22.65;;;;;;;5.11;100.00;100799.25;4929681;29;20031;-87
2023/01/13 08:34:44;;;;;;;42.47;20.67;;;;;;;5.15;100.00;100795.44;4946030;29;20045;-84
2023/01/13 08:37:09;;;;;;;44.85;20.08;;;;;;;5.31;100.00;100785.38;4928535;29;20051;-86
2023/01/13 08:39:35;;;;;;;43.78;23.30;;;;;;;5.26;100.00;100777.06;4945761;29;20039;-88
2023/01/13 08:42:02;;;;;;;45.20;23.17;;;;;;;5.29;100.00;100781.22;4946803;29;20092;-87
2023/01/13 08:44:29;;;;;;;54.05;23.52;;;;;;;5.34;100.00;100803.53;4948098;29;20059;-87
2023/01/13 08:46:56;;;;;;;50.88;24.40;;;;;;;5.40;100.00;100808.31;4911294;29;20391;-86
2023/01/13 08:49:23;;;;;;;47.50;24.95;;;;;;;5.49;100.00;100802.34;4945622;29;20480;-87
2023/01/13 08:51:49;;;;;;;52.97;27.50;;;;;;;5.55;100.00;100799.22;4929131;29;20075;-87
2023/01/13 08:54:15;;;;;;;66.53;32.00;;;;;;;5.69;100.00;100804.19;4940910;29;20496;-86
2023/01/13 08:56:42;;;;;;;65.18;32.45;;;;;;;5.74;100.00;100809.91;4921248;29;20081;-83
2023/01/13 08:59:16;;;;;;;67.22;33.05;;;;;;;5.83;100.00;100802.25;4936839;29;20055;-83
2023/01/13 09:01:42;;;;;;;60.97;30.42;;;;;;;6.04;100.00;100792.63;4936737;29;20509;-85
2023/01/13 09:04:20;;;;;;;59.95;30.77;;;;;;;6.43;100.00;100789.28;4917075;29;20043;-84
2023/01/13 09:06:46;;;;;;;54.13;29.38;;;;;;;6.39;100.00;100801.06;4936540;29;20211;-83
2023/01/13 09:09:14;;;;;;;53.08;29.50;;;;;;;6.59;100.00;100786.22;4918376;29;20047;-85
2023/01/13 09:14:30;;;;;;;56.78;30.58;;;;;;;6.92;100.00;100809.69;4939047;29;20090;-86
2023/01/13 09:16:57;;;;;;;58.38;30.23;;;;;;;6.78;100.00;100817.09;4947258;29;20036;-87
2023/01/13 09:19:22;;;;;;;60.08;30.85;;;;;;;6.89;100.00;100825.75;4943593;29;20043;-87
2023/01/13 09:21:48;;;;;;;62.45;30.88;;;;;;;6.97;100.00;100823.28;4942328;29;20040;-88
2023/01/13 09:24:17;;;;;;;63.90;32.42;;;;;;;7.02;100.00;100818.47;4944752;29;20101;-88
2023/01/13 09:26:42;;;;;;;64.55;33.70;;;;;;;7.05;100.00;100820.84;4943133;29;20075;-91
2023/01/13 09:29:08;;;;;;;63.67;34.97;;;;;;;7.23;100.00;100821.03;4947178;29;20031;-87
2023/01/13 09:31:33;;;;;;;61.38;34.60;;;;;;;7.12;100.00;100821.13;4946815;29;20455;-88
2023/01/13 09:36:53;;;;;;;63.03;33.33;;;;;;;7.28;100.00;100824.09;4946975;29;20039;-86
2023/01/13 09:39:18;;;;;;;61.90;34.03;;;;;;;7.38;100.00;100827.63;4927069;29;20479;-85
2023/01/13 09:45:00;;;;;;;49.55;28.80;;;;;;;7.37;100.00;100852.31;4929350;29;20426;-85
2023/01/13 09:47:44;;;;;;;52.05;27.33;;;;;;;7.29;100.00;100842.41;4948802;29;20044;-86
2023/01/13 09:50:12;;;;;;;49.92;26.70;;;;;;;7.06;100.00;100842.75;4942736;29;20398;-85
2023/01/13 09:52:41;;;;;;;58.05;27.85;;;;;;;7.00;100.00;100853.78;4943088;29;20126;-87
2023/01/13 09:55:37;;;;;;;58.33;29.75;;;;;;;6.87;100.00;100843.47;4947423;29;20043;-86
2023/01/13 09:58:12;;;;;;;47.53;27.88;;;;;;;6.95;100.00;100845.47;4851753;29;20058;-86
2023/01/13 10:00:45;;;;;;;54.58;27.80;;;;;;;6.88;100.00;100849.59;4850703;29;20130;-85
2023/01/13 10:03:26;;;;;;;49.00;28.45;;;;;;;6.79;100.00;100858.28;4849083;29;20046;-87
2023/01/13 10:06:18;;;;;;;52.03;29.52;;;;;;;6.72;100.00;100861.44;4850194;29;20049;-88
2023/01/13 10:08:47;;;;;;;59.28;29.13;;;;;;;6.68;100.00;100852.09;4905015;29;20103;-83
2023/01/13 10:14:08;;;;;;;54.45;30.58;;;;;;;6.90;100.00;100823.94;4924649;29;20046;-85
2023/01/13 10:16:49;;;;;;;53.42;30.48;;;;;;;7.07;100.00;100818.88;4941298;29;20028;-86
2023/01/13 10:19:55;;;;;;;52.78;30.98;;;;;;;6.81;100.00;100827.34;4952705;29;20047;-88
2023/01/13 10:22:54;;;;;;;56.10;32.92;;;;;;;6.76;100.00;100830.41;4919208;29;20111;-89
2023/01/13 10:25:53;;;;;;;63.03;33.25;;;;;;;6.79;100.00;100834.56;4951021;29;20055;-86
2023/01/13 10:28:22;;;;;;;55.40;34.15;;;;;;;6.85;100.00;100842.78;4944726;29;20035;-85
2023/01/13 10:30:48;;;;;;;65.68;35.17;;;;;;;6.78;100.00;100849.53;4943630;29;20088;-85
2023/01/13 10:33:21;;;;;;;71.85;35.17;;;;;;;6.81;100.00;100837.88;4941228;29;20071;-84
2023/01/13 10:35:58;;;;;;;60.60;33.80;;;;;;;6.91;100.00;100828.25;4940590;29;20074;-84
2023/01/13 10:38:35;;;;;;;59.72;31.88;;;;;;;6.96;100.00;100821.59;4943737;29;20036;-89
2023/01/13 10:41:04;;;;;;;52.78;28.55;;;;;;;6.99;100.00;100820.53;4952135;29;20090;-90
2023/01/13 10:44:01;;;;;;;47.80;28.88;;;;;;;6.87;100.00;100818.94;4945417;29;20028;-88
2023/01/13 10:47:04;;;;;;;57.38;29.75;;;;;;;6.70;100.00;100810.66;4938886;29;20040;-91
2023/01/13 10:49:35;;;;;;;57.78;31.48;;;;;;;6.67;100.00;100805.66;4954597;29;20046;-85
2023/01/13 10:55:32;;;;;;;60.72;33.45;;;;;;;6.64;100.00;100792.75;4931095;29;20040;-86
2023/01/13 10:58:12;;;;;;;63.10;36.08;;;;;;;6.59;100.00;100800.22;4937345;29;20125;-89
2023/01/13 11:00:44;;;;;;;67.20;36.42;;;;;;;6.60;100.00;100793.13;4907845;29;20036;-86
2023/01/13 11:03:19;;;;;;;63.47;36.38;;;;;;;6.66;100.00;100788.19;4923341;29;20472;-88
2023/01/13 11:05:51;;;;;;;64.15;35.75;;;;;;;6.64;100.00;100790.13;4931319;29;20080;-90
2023/01/13 11:08:21;;;;;;;61.23;34.90;;;;;;;6.64;100.00;100781.38;4935256;29;20062;-87
2023/01/13 11:10:52;;;;;;;66.93;32.30;;;;;;;6.57;100.00;100773.16;4936964;29;20311;-86
2023/01/13 11:13:34;;;;;;;53.00;29.02;;;;;;;6.47;100.00;100777.53;4924057;29;20024;-86
2023/01/13 11:15:59;;;;;;;65.88;31.23;;;;;;;6.52;100.00;100775.38;4925364;29;20032;-84
2023/01/13 11:19:11;;;;;;;50.88;26.60;;;;;;;6.60;100.00;100766.78;4941469;29;20032;-86
2023/01/13 11:21:51;;;;;;;52.67;26.95;;;;;;;6.55;100.00;100763.75;4926600;29;20028;-88
2023/01/13 11:24:40;;;;;;;44.75;25.23;;;;;;;6.60;100.00;100757.09;4940980;29;20057;-86
2023/01/13 11:27:14;;;;;;;49.10;25.48;;;;;;;6.71;100.00;100754.41;4942381;29;20024;-85
2023/01/13 11:30:12;;;;;;;58.30;25.65;;;;;;;6.71;100.00;100759.66;4925975;29;20020;-87
2023/01/13 11:33:05;;;;;;;53.55;25.77;;;;;;;6.76;100.00;100754.00;4886712;29;20046;-88
2023/01/13 11:35:34;;;;;;;45.60;23.95;;;;;;;6.72;100.00;100761.34;4942073;29;20036;-86
2023/01/13 11:38:13;;;;;;;44.38;25.55;;;;;;;6.80;100.00;100770.34;4908646;29;20047;-81
2023/01/13 11:40:45;;;;;;;47.13;25.10;;;;;;;7.05;100.00;100769.94;4925270;29;20027;-87
2023/01/13 11:43:19;;;;;;;51.63;24.73;;;;;;;6.91;100.00;100765.84;4942325;29;20052;-86
2023/01/13 11:45:57;;;;;;;41.72;23.15;;;;;;;6.90;100.00;100768.59;4941277;29;20052;-84
2023/01/13 11:48:26;;;;;;;43.08;23.08;;;;;;;6.88;100.00;100768.75;4938382;29;20054;-88
2023/01/13 11:51:13;;;;;;;43.88;23.92;;;;;;;6.94;100.00;100767.38;4925294;29;20035;-88
2023/01/13 11:53:51;;;;;;;47.47;24.27;;;;;;;7.05;100.00;100754.13;4941711;29;20024;-87
2023/01/13 11:56:29;;;;;;;43.80;25.20;;;;;;;7.05;100.00;100746.22;4941469;29;20036;-85
2023/01/13 11:59:15;;;;;;;50.53;25.70;;;;;;;6.95;100.00;100751.44;4941582;29;20052;-84
2023/01/13 12:02:08;;;;;;;53.10;27.77;;;;;;;7.06;100.00;100751.31;4941614;29;20055;-87
2023/01/13 12:04:48;;;;;;;;;;;;;;;7.05;100.00;100751.47;4942048;29;20032;-88
2023/01/13 12:07:30;;;;;;;50.88;28.65;;;;;;;6.98;100.00;100750.34;4941402;29;19907;-86
2023/01/13 12:10:27;;;;;;;52.53;29.92;;;;;;;7.05;100.00;100751.47;4941606;29;20024;-89
2023/01/13 12:13:01;;;;;;;58.72;30.60;;;;;;;7.18;100.00;100755.53;4941154;29;20039;-89
2023/01/13 12:15:35;;;;;;;50.25;29.75;;;;;;;7.10;100.00;100749.25;4941184;29;20052;-87
2023/01/13 12:18:20;;;;;;;59.17;30.38;;;;;;;7.04;100.00;100736.63;4925156;29;20105;-87
2023/01/13 12:21:19;;;;;;;55.13;30.92;;;;;;;7.13;100.00;100728.75;4941266;29;20028;-87
2023/01/13 12:24:16;;;;;;;52.33;30.25;;;;;;;7.08;100.00;100719.59;4940883;29;20099;-88
2023/01/13 12:26:53;;;;;;;50.30;29.17;;;;;;;7.19;100.00;100722.94;4941657;29;20099;-88
2023/01/13 12:29:29;;;;;;;55.70;30.02;;;;;;;7.36;100.00;100723.25;4925338;29;20052;-86
2023/01/13 12:31:56;;;;;;;59.42;30.30;;;;;;;7.52;100.00;100720.91;4909362;29;20032;-83
2023/01/13 12:34:50;;;;;;;52.53;30.15;;;;;;;7.33;100.00;100708.53;4941263;29;20032;-85
2023/01/13 12:37:26;;;;;;;57.90;30.58;;;;;;;7.19;100.00;100711.56;4940154;29;20059;-85
2023/01/13 12:40:19;;;;;;;52.92;29.38;;;;;;;7.20;100.00;100700.03;4939727;29;20028;-87
2023/01/13 12:45:38;;;;;;;;;;;;;;;7.08;100.00;100698.50;4932019;29;20040;-86
2023/01/13 12:48:04;;;;;;;57.63;31.15;;;;;;;7.07;100.00;100696.81;4930030;29;19938;-86
2023/01/13 12:50:29;;;;;;;58.65;32.60;;;;;;;7.20;100.00;100697.41;4932711;29;20427;-85